Time;durP1;ratioP1;P1;durP2;ratioP2;P2;SDS_P1;SDS_P2;PMS_P1;PMS_P2;Temp;Humidity;BMP_temperature;BMP_pressure;BME280_temperature;BME280_humidity;BME280_pressure;Samples;Min_cycle;Max_cycle;Signal;HPM_P1;HPM_P2
2022/10/01 00:04:23;;;;;;;7.20;6.70;;;;;;;;;;10457018;28;20217;-78
2022/10/01 00:09:25;;;;;;;8.13;7.43;;;;;;;;;;10457698;28;20203;-77
2022/10/01 00:14:29;;;;;;;7.60;6.90;;;;;;;;;;10456941;28;20217;-77
2022/10/01 00:19:31;;;;;;;7.40;6.83;;;;;;;;;;10456907;28;20190;-77
2022/10/01 00:24:35;;;;;;;7.80;6.53;;;;;;;;;;10438492;28;20271;-77
2022/10/01 00:29:39;;;;;;;6.53;6.10;;;;;;;;;;10421893;28;20197;-78
2022/10/01 00:34:41;;;;;;;7.73;7.13;;;;;;;;;;10456660;28;20209;-78
2022/10/01 00:39:43;;;;;;;7.60;7.00;;;;;;;;;;10439361;28;20220;-77
2022/10/01 00:44:48;;;;;;;6.27;5.80;;;;;;;;;;10456915;28;20288;-77
2022/10/01 00:49:52;;;;;;;7.17;6.50;;;;;;;;;;10441254;28;20185;-77
2022/10/01 00:54:57;;;;;;;6.70;6.20;;;;;;;;;;10442681;28;20233;-77
2022/10/01 01:00:02;;;;;;;7.03;6.53;;;;;;;;;;10453434;28;20239;-77
2022/10/01 01:05:06;;;;;;;7.03;6.43;;;;;;;;;;10435314;28;20830;-77
2022/10/01 01:10:09;;;;;;;7.80;7.10;;;;;;;;;;10456934;28;20189;-78
2022/10/01 01:15:15;;;;;;;7.57;6.90;;;;;;;;;;10460511;28;20213;-78
2022/10/01 01:20:27;;;;;;;7.63;7.10;;;;;;;;;;10442680;28;20626;-78
2022/10/01 01:25:34;;;;;;;7.00;6.40;;;;;;;;;;10464009;28;20266;-78
2022/10/01 01:30:40;;;;;;;6.40;6.00;;;;;;;;;;10444179;28;20182;-79
2022/10/01 01:35:43;;;;;;;5.83;5.43;;;;;;;;;;10461485;28;20214;-78
2022/10/01 01:40:50;;;;;;;6.37;5.80;;;;;;;;;;10460786;28;20232;-78
2022/10/01 01:45:54;;;;;;;5.70;5.30;;;;;;;;;;10464251;28;20259;-79
2022/10/01 01:50:58;;;;;;;6.50;6.10;;;;;;;;;;10459714;28;20189;-78
2022/10/01 01:56:00;;;;;;;6.07;5.70;;;;;;;;;;10441188;28;20581;-79
2022/10/01 02:01:04;;;;;;;5.67;5.37;;;;;;;;;;10443225;28;20308;-78
2022/10/01 02:06:13;;;;;;;6.70;6.20;;;;;;;;;;10458530;28;20205;-79
2022/10/01 02:11:26;;;;;;;6.70;6.20;;;;;;;;;;10459570;28;20195;-78
2022/10/01 02:16:33;;;;;;;6.60;6.20;;;;;;;;;;10455495;28;20264;-78
2022/10/01 02:21:39;;;;;;;6.47;6.07;;;;;;;;;;10421203;28;20217;-79
2022/10/01 02:26:43;;;;;;;6.33;6.00;;;;;;;;;;10441676;28;20240;-78
2022/10/01 02:31:48;;;;;;;6.17;5.77;;;;;;;;;;10458804;28;20280;-78
2022/10/01 02:36:51;;;;;;;6.27;5.87;;;;;;;;;;10459889;28;20274;-78
2022/10/01 02:41:56;;;;;;;5.83;5.43;;;;;;;;;;10464203;28;20213;-78
2022/10/01 02:47:03;;;;;;;6.37;5.97;;;;;;;;;;10441567;28;20555;-78
2022/10/01 02:52:08;;;;;;;6.40;6.00;;;;;;;;;;10438901;28;20190;-78
2022/10/01 02:57:23;;;;;;;5.73;5.43;;;;;;;;;;10439543;28;20717;-78
2022/10/01 03:02:27;;;;;;;6.13;5.80;;;;;;;;;;10457693;28;20225;-78
2022/10/01 03:07:33;;;;;;;6.60;6.10;;;;;;;;;;10422176;28;20208;-77
2022/10/01 03:12:35;;;;;;;5.60;5.20;;;;;;;;;;10457305;28;20231;-78
2022/10/01 03:17:39;;;;;;;6.07;5.60;;;;;;;;;;10440273;28;20189;-79
2022/10/01 03:22:41;;;;;;;5.50;5.10;;;;;;;;;;10458530;28;20295;-79
2022/10/01 03:27:45;;;;;;;6.23;5.93;;;;;;;;;;10462390;28;20248;-77
2022/10/01 03:32:48;;;;;;;5.10;4.80;;;;;;;;;;10463318;28;20219;-79
2022/10/01 03:37:51;;;;;;;5.73;5.40;;;;;;;;;;10446318;28;20321;-79
2022/10/01 03:42:54;;;;;;;5.37;5.03;;;;;;;;;;10464449;28;20217;-79
2022/10/01 03:47:57;;;;;;;5.40;5.10;;;;;;;;;;10459645;28;20194;-77
2022/10/01 03:53:00;;;;;;;5.40;5.10;;;;;;;;;;10457902;28;20213;-77
2022/10/01 03:58:02;;;;;;;5.27;4.97;;;;;;;;;;10458053;28;20225;-77
2022/10/01 04:03:06;;;;;;;5.10;4.80;;;;;;;;;;10457771;28;20757;-77
2022/10/01 04:08:09;;;;;;;5.43;5.13;;;;;;;;;;10457732;28;20257;-77
2022/10/01 04:13:11;;;;;;;4.87;4.60;;;;;;;;;;10439311;28;20253;-77
2022/10/01 04:18:18;;;;;;;5.50;4.43;;;;;;;;;;10439484;28;20186;-77
2022/10/01 04:23:21;;;;;;;5.40;5.10;;;;;;;;;;10456571;28;20239;-78
2022/10/01 04:28:23;;;;;;;4.50;4.30;;;;;;;;;;10455905;28;20729;-77
2022/10/01 04:33:27;;;;;;;4.90;4.70;;;;;;;;;;10438229;28;20217;-77
2022/10/01 04:38:29;;;;;;;4.90;4.70;;;;;;;;;;10456145;28;20201;-77
2022/10/01 04:43:32;;;;;;;4.60;4.30;;;;;;;;;;10439550;28;20247;-77
2022/10/01 04:48:35;;;;;;;4.63;4.43;;;;;;;;;;10459924;28;20189;-78
2022/10/01 04:53:38;;;;;;;4.53;4.23;;;;;;;;;;10443504;28;20221;-78
2022/10/01 04:58:40;;;;;;;5.80;5.40;;;;;;;;;;10444109;28;20280;-78
2022/10/01 05:03:44;;;;;;;5.57;5.17;;;;;;;;;;10461591;28;20304;-78
2022/10/01 05:08:48;;;;;;;4.37;4.17;;;;;;;;;;10462061;28;20207;-77
2022/10/01 05:13:50;;;;;;;5.07;4.77;;;;;;;;;;10456566;28;20658;-77
2022/10/01 05:18:54;;;;;;;4.73;4.43;;;;;;;;;;10454322;28;20243;-78
2022/10/01 05:23:57;;;;;;;4.77;4.43;;;;;;;;;;10419310;28;20300;-78
2022/10/01 05:28:59;;;;;;;4.43;4.07;;;;;;;;;;10435979;28;20213;-78
2022/10/01 05:34:03;;;;;;;4.83;4.53;;;;;;;;;;10454477;28;20221;-77
2022/10/01 05:39:05;;;;;;;5.00;4.80;;;;;;;;;;10453685;28;20280;-77
2022/10/01 05:44:08;;;;;;;4.03;3.80;;;;;;;;;;10435879;28;20292;-77
2022/10/01 05:49:12;;;;;;;4.53;4.27;;;;;;;;;;10452753;28;20231;-77
2022/10/01 05:54:17;;;;;;;4.47;4.17;;;;;;;;;;10470734;22;20287;-79
2022/10/01 05:59:19;;;;;;;3.60;3.50;;;;;;;;;;10476293;28;20483;-79
2022/10/01 06:04:23;;;;;;;4.10;3.90;;;;;;;;;;10470128;28;20247;-79
2022/10/01 06:09:25;;;;;;;4.67;4.47;;;;;;;;;;10469057;28;20189;-79
2022/10/01 06:14:28;;;;;;;4.70;4.40;;;;;;;;;;10414975;28;20214;-78
2022/10/01 06:19:32;;;;;;;5.10;4.90;;;;;;;;;;10425816;28;20205;-79
2022/10/01 06:24:35;;;;;;;5.37;5.17;;;;;;;;;;10446747;28;20592;-79
2022/10/01 06:29:37;;;;;;;6.13;5.83;;;;;;;;;;10432849;28;20220;-78
2022/10/01 06:34:41;;;;;;;6.40;6.00;;;;;;;;;;10410302;28;20760;-78
2022/10/01 06:39:44;;;;;;;6.60;6.20;;;;;;;;;;10412033;28;20190;-79
2022/10/01 06:44:46;;;;;;;8.90;8.40;;;;;;;;;;10463180;28;20689;-79
2022/10/01 06:49:50;;;;;;;7.80;7.50;;;;;;;;;;10425381;28;20225;-78
2022/10/01 06:54:52;;;;;;;7.60;7.30;;;;;;;;;;10408814;28;20267;-78
2022/10/01 06:59:56;;;;;;;8.93;8.53;;;;;;;;;;10430924;28;20190;-79
2022/10/01 07:05:00;;;;;;;8.43;8.03;;;;;;;;;;10420599;28;20225;-79
2022/10/01 07:10:03;;;;;;;9.67;9.17;;;;;;;;;;10421961;28;20580;-80
2022/10/01 07:15:06;;;;;;;9.60;9.20;;;;;;;;;;10422790;28;20216;-79
2022/10/01 07:20:10;;;;;;;14.93;13.63;;;;;;;;;;10453686;28;20204;-80
2022/10/01 07:25:12;;;;;;;10.50;9.70;;;;;;;;;;10455562;28;20267;-78
2022/10/01 07:30:15;;;;;;;12.73;11.60;;;;;;;;;;10463496;28;20185;-80
2022/10/01 07:35:19;;;;;;;13.30;12.50;;;;;;;;;;10456609;28;20206;-79
2022/10/01 07:40:22;;;;;;;11.90;11.10;;;;;;;;;;10462564;28;20593;-79
2022/10/01 07:45:25;;;;;;;16.03;14.70;;;;;;;;;;10467132;28;20228;-79
2022/10/01 07:50:31;;;;;;;12.73;11.93;;;;;;;;;;10468003;28;20201;-79
2022/10/01 07:55:35;;;;;;;14.50;13.20;;;;;;;;;;10433638;28;20229;-79
2022/10/01 08:00:42;;;;;;;10.77;10.17;;;;;;;;;;10431720;28;20194;-80
2022/10/01 08:05:46;;;;;;;9.50;9.00;;;;;;;;;;10432236;28;20220;-79
2022/10/01 08:10:52;;;;;;;11.03;10.43;;;;;;;;;;10422082;28;20194;-78
2022/10/01 08:15:54;;;;;;;10.23;9.73;;;;;;;;;;10421686;28;20331;-79
2022/10/01 08:21:00;;;;;;;12.43;11.63;;;;;;;;;;10433575;28;20239;-79
2022/10/01 08:26:04;;;;;;;8.83;8.33;;;;;;;;;;10461099;28;20217;-80
2022/10/01 08:31:10;;;;;;;10.87;10.27;;;;;;;;;;10465674;28;20199;-80
2022/10/01 08:36:17;;;;;;;12.00;11.30;;;;;;;;;;10445882;28;20228;-81
2022/10/01 08:41:27;;;;;;;10.93;10.47;;;;;;;;;;10462454;28;20237;-80
2022/10/01 08:46:33;;;;;;;12.60;11.70;;;;;;;;;;10466191;28;20209;-80
2022/10/01 08:51:45;;;;;;;8.93;8.43;;;;;;;;;;10452568;28;20193;-80
2022/10/01 08:56:51;;;;;;;11.80;11.20;;;;;;;;;;10442173;28;20275;-80
2022/10/01 09:01:53;;;;;;;11.03;10.53;;;;;;;;;;10456692;28;20228;-80
2022/10/01 09:07:00;;;;;;;10.63;10.03;;;;;;;;;;10414417;28;20287;-80
2022/10/01 09:12:09;;;;;;;10.73;10.13;;;;;;;;;;10437893;28;20752;-79
2022/10/01 09:17:19;;;;;;;11.67;10.87;;;;;;;;;;10428833;28;20278;-79
2022/10/01 09:22:26;;;;;;;11.53;10.93;;;;;;;;;;10456046;28;20213;-79
2022/10/01 09:27:29;;;;;;;10.40;9.83;;;;;;;;;;10439642;28;20248;-79
2022/10/01 09:32:37;;;;;;;10.43;9.93;;;;;;;;;;10422580;28;20225;-78
2022/10/01 09:37:42;;;;;;;10.57;10.07;;;;;;;;;;10417886;28;20213;-79
2022/10/01 09:42:46;;;;;;;10.30;9.90;;;;;;;;;;10457367;28;20263;-82
2022/10/01 09:47:52;;;;;;;10.40;9.90;;;;;;;;;;10429259;28;20214;-80
2022/10/01 09:52:58;;;;;;;9.00;8.60;;;;;;;;;;10459907;28;20242;-79
2022/10/01 09:58:02;;;;;;;10.23;9.83;;;;;;;;;;10426873;28;20218;-80
2022/10/01 10:03:04;;;;;;;5.90;5.60;;;;;;;;;;10455191;28;20213;-80
2022/10/01 10:08:13;;;;;;;6.67;6.37;;;;;;;;;;10410882;28;20194;-80
2022/10/01 10:13:20;;;;;;;11.00;10.40;;;;;;;;;;10460258;28;20213;-79
2022/10/01 10:18:28;;;;;;;8.43;8.07;;;;;;;;;;10460143;28;20193;-81
2022/10/01 10:23:33;;;;;;;5.90;5.70;;;;;;;;;;10423619;28;20316;-80
2022/10/01 10:28:40;;;;;;;7.80;7.50;;;;;;;;;;10418952;28;20220;-79
2022/10/01 10:33:47;;;;;;;9.20;8.80;;;;;;;;;;10400394;28;20221;-80
2022/10/01 10:38:52;;;;;;;8.73;8.33;;;;;;;;;;10423061;28;20214;-80
2022/10/01 10:43:56;;;;;;;7.33;7.10;;;;;;;;;;10416331;28;20214;-80
2022/10/01 10:49:03;;;;;;;6.00;5.60;;;;;;;;;;10433210;28;20196;-80
2022/10/01 10:54:17;;;;;;;7.50;7.20;;;;;;;;;;10422465;28;20217;-80
2022/10/01 10:59:20;;;;;;;7.07;6.80;;;;;;;;;;10399749;28;20209;-80
2022/10/01 11:04:27;;;;;;;6.40;6.10;;;;;;;;;;10440489;28;20354;-80
2022/10/01 11:09:34;;;;;;;6.20;6.00;;;;;;;;;;10422051;28;20685;-80
2022/10/01 11:14:44;;;;;;;5.97;5.77;;;;;;;;;;10445551;28;20221;-80
2022/10/01 11:19:57;;;;;;;6.80;6.60;;;;;;;;;;10418814;28;20574;-81
2022/10/01 11:25:11;;;;;;;5.37;5.17;;;;;;;;;;10416131;28;20222;-79
2022/10/01 11:30:15;;;;;;;3.30;3.17;;;;;;;;;;10439575;28;20198;-80
2022/10/01 11:35:43;;;;;;;5.50;5.30;;;;;;;;;;10421408;28;20214;-79
2022/10/01 11:40:49;;;;;;;5.50;5.30;;;;;;;;;;10422447;28;20198;-79
2022/10/01 11:45:53;;;;;;;3.73;3.63;;;;;;;;;;10440484;28;20260;-78
2022/10/01 11:50:58;;;;;;;4.87;4.67;;;;;;;;;;10432257;28;20198;-78
2022/10/01 12:01:30;;;;;;;4.20;4.00;;;;;;;;;;10398142;28;20591;-77
2022/10/01 12:06:34;;;;;;;2.33;2.23;;;;;;;;;;10415116;28;20291;-78
2022/10/01 12:11:42;;;;;;;4.43;4.23;;;;;;;;;;10414851;28;20194;-78
2022/10/01 12:16:49;;;;;;;7.30;6.80;;;;;;;;;;10419446;28;20229;-78
2022/10/01 12:21:54;;;;;;;5.10;4.90;;;;;;;;;;10421334;28;20212;-78
2022/10/01 12:27:10;;;;;;;2.90;2.80;;;;;;;;;;10421244;28;20224;-79
2022/10/01 12:32:17;;;;;;;5.00;4.77;;;;;;;;;;10406085;28;20194;-79
2022/10/01 12:37:25;;;;;;;4.53;4.43;;;;;;;;;;10419489;28;20236;-79
2022/10/01 12:42:41;;;;;;;4.70;4.50;;;;;;;;;;10420152;28;20210;-78
2022/10/01 12:47:47;;;;;;;4.17;4.07;;;;;;;;;;10402039;28;20228;-79
2022/10/01 12:52:54;;;;;;;4.20;4.10;;;;;;;;;;10420198;28;20202;-79
2022/10/01 12:58:02;;;;;;;4.47;4.30;;;;;;;;;;10420905;28;20774;-79
2022/10/01 13:03:17;;;;;;;4.70;4.50;;;;;;;;;;10412568;28;20681;-77
2022/10/01 13:08:29;;;;;;;3.00;2.90;;;;;;;;;;10376957;28;20201;-79
2022/10/01 13:13:33;;;;;;;3.07;2.97;;;;;;;;;;10416699;28;20194;-79
2022/10/01 13:18:43;;;;;;;3.57;3.47;;;;;;;;;;10398281;28;20194;-79
2022/10/01 13:23:47;;;;;;;4.80;4.60;;;;;;;;;;10420299;28;20296;-79
2022/10/01 13:28:58;;;;;;;3.20;3.10;;;;;;;;;;10419457;28;20198;-78
2022/10/01 13:34:01;;;;;;;2.90;2.80;;;;;;;;;;10419950;28;20677;-78
2022/10/01 13:39:04;;;;;;;3.00;2.90;;;;;;;;;;10422291;28;20634;-79
2022/10/01 13:44:25;;;;;;;3.30;3.10;;;;;;;;;;10404953;28;20345;-77
2022/10/01 13:49:29;;;;;;;3.00;2.90;;;;;;;;;;10410954;28;20236;-78
2022/10/01 13:54:35;;;;;;;3.07;2.87;;;;;;;;;;10423052;28;20225;-77
2022/10/01 13:59:40;;;;;;;1.80;1.70;;;;;;;;;;10427491;28;20761;-77
2022/10/01 14:04:44;;;;;;;3.03;2.93;;;;;;;;;;10410244;28;20226;-78
2022/10/01 14:09:49;;;;;;;2.70;2.60;;;;;;;;;;10411450;28;20197;-78
2022/10/01 14:20:18;;;;;;;2.00;1.90;;;;;;;;;;10385078;28;20217;-77
2022/10/01 14:25:25;;;;;;;4.07;3.77;;;;;;;;;;10380409;28;20542;-78
2022/10/01 14:30:36;;;;;;;2.77;2.60;;;15.50;99.90;;;;;;10394303;28;20658;-79
2022/10/01 14:35:46;;;;;;;2.67;2.57;;;15.50;99.90;;;;;;10380656;28;20206;-78
2022/10/01 14:40:51;;;;;;;3.00;2.90;;;15.60;99.90;;;;;;10416355;28;20202;-79
2022/10/01 14:45:57;;;;;;;2.90;2.80;;;15.70;99.90;;;;;;10434798;28;20681;-79
2022/10/01 14:51:01;;;;;;;2.67;2.57;;;15.80;99.90;;;;;;10416782;28;20237;-79
2022/10/01 14:56:07;;;;;;;3.13;3.03;;;15.80;99.90;;;;;;10413514;28;20241;-78
2022/10/01 15:01:18;;;;;;;2.67;2.57;;;15.80;99.90;;;;;;10402189;28;20233;-78
2022/10/01 15:06:22;;;;;;;3.10;2.90;;;15.80;99.90;;;;;;10402423;28;20640;-79
2022/10/01 15:11:27;;;;;;;2.73;2.63;;;15.70;99.90;;;;;;10399682;28;20229;-79
2022/10/01 15:16:31;;;;;;;2.00;1.90;;;15.60;99.90;;;;;;10420139;28;20220;-79
2022/10/01 15:21:37;;;;;;;2.60;2.40;;;15.60;99.90;;;;;;10407477;28;20224;-78
2022/10/01 15:26:39;;;;;;;2.60;2.40;;;15.60;99.90;;;;;;10385132;28;20233;-78
2022/10/01 15:31:43;;;;;;;2.80;2.70;;;15.50;99.90;;;;;;10416043;28;20746;-79
2022/10/01 15:36:47;;;;;;;3.10;3.00;;;15.40;99.90;;;;;;10423486;28;20210;-79
2022/10/01 15:41:51;;;;;;;2.70;2.60;;;15.40;99.90;;;;;;10428364;28;20198;-79
2022/10/01 15:47:14;;;;;;;1.93;1.83;;;15.40;99.90;;;;;;10420574;28;20649;-79
2022/10/01 15:57:38;;;;;;;3.20;3.00;;;15.40;99.90;;;;;;10423156;28;20278;-79
2022/10/01 16:02:44;;;;;;;4.90;4.60;;;15.40;99.90;;;;;;10404715;28;20222;-78
2022/10/01 16:07:55;;;;;;;3.30;2.90;;;15.40;99.90;;;;;;10396970;28;20241;-78
2022/10/01 16:12:57;;;;;;;2.50;2.40;;;15.40;99.90;;;;;;10416153;28;20198;-78
2022/10/01 16:18:01;;;;;;;3.07;2.87;;;15.40;99.90;;;;;;10437239;28;20219;-77
2022/10/01 16:23:32;;;;;;;2.90;2.80;;;15.30;99.90;;;;;;10434520;28;20259;-77
2022/10/01 16:28:36;;;;;;;2.77;2.67;;;15.30;99.90;;;;;;10400157;28;20276;-78
2022/10/01 16:33:40;;;;;;;3.53;3.43;;;15.30;99.90;;;;;;10413776;28;20234;-77
2022/10/01 16:38:42;;;;;;;3.13;3.03;;;15.20;99.90;;;;;;10412996;28;20224;-77
2022/10/01 16:43:44;;;;;;;2.90;2.80;;;15.20;99.90;;;;;;10378734;28;20237;-78
2022/10/01 16:48:50;;;;;;;3.20;2.90;;;15.20;99.90;;;;;;10401888;28;20741;-77
2022/10/01 16:53:53;;;;;;;2.70;2.60;;;15.10;99.90;;;;;;10422004;28;20252;-76
2022/10/01 16:58:56;;;;;;;2.83;2.63;;;15.10;99.90;;;;;;10412281;28;20233;-78
2022/10/01 17:03:59;;;;;;;2.47;2.37;;;15.10;99.90;;;;;;10414485;28;20296;-77
2022/10/01 17:09:01;;;;;;;2.53;2.43;;;15.10;99.90;;;;;;10412981;28;20197;-78
2022/10/01 17:14:03;;;;;;;2.70;2.60;;;15.10;99.90;;;;;;10412809;28;20276;-78
2022/10/01 17:19:07;;;;;;;3.20;3.03;;;15.10;99.90;;;;;;10410575;28;20212;-79
2022/10/01 17:24:10;;;;;;;3.00;2.90;;;15.10;99.90;;;;;;10386407;28;20283;-76
2022/10/01 17:29:12;;;;;;;2.40;2.20;;;15.10;99.90;;;;;;10429377;28;20297;-78
2022/10/01 17:34:16;;;;;;;2.80;2.70;;;15.00;99.90;;;;;;10428704;28;20228;-77
2022/10/01 17:39:18;;;;;;;3.40;3.17;;;15.00;99.90;;;;;;10421266;28;20221;-78
2022/10/01 17:44:20;;;;;;;2.80;2.70;;;15.00;99.90;;;;;;10413640;28;20222;-78
2022/10/01 17:49:23;;;;;;;3.20;3.00;;;15.00;99.90;;;;;;10423807;28;20202;-77
2022/10/01 17:54:25;;;;;;;6.40;3.57;;;15.00;99.90;;;;;;10425379;28;20222;-77
2022/10/01 17:59:28;;;;;;;2.70;2.60;;;15.00;99.90;;;;;;10410634;28;20602;-77
2022/10/01 18:04:32;;;;;;;3.30;3.10;;;15.10;99.90;;;;;;10426803;28;20790;-79
2022/10/01 18:09:35;;;;;;;3.17;2.90;;;15.00;99.90;;;;;;10415551;28;20288;-78
2022/10/01 18:14:37;;;;;;;3.30;3.10;;;15.00;99.90;;;;;;10410268;28;20247;-79
2022/10/01 18:19:41;;;;;;;2.17;1.80;;;15.00;99.90;;;;;;10409730;28;20217;-77
2022/10/01 18:24:44;;;;;;;3.20;3.00;;;15.00;99.90;;;;;;10425437;28;20308;-76
2022/10/01 18:29:46;;;;;;;4.30;2.67;;;15.00;99.90;;;;;;10419982;28;20302;-77
2022/10/01 18:34:54;;;;;;;4.57;3.20;;;15.00;99.90;;;;;;10427209;28;20279;-77
2022/10/01 18:40:03;;;;;;;3.60;3.40;;;15.00;99.90;;;;;;10361604;28;20201;-77
2022/10/01 18:45:14;;;;;;;5.73;3.53;;;15.00;99.90;;;;;;10427745;28;20283;-77
2022/10/01 18:50:26;;;;;;;3.93;3.60;;;15.00;99.90;;;;;;10441798;28;20203;-77
2022/10/01 18:55:58;;;;;;;3.80;3.50;;;14.90;99.90;;;;;;10418922;28;20623;-78
2022/10/01 19:01:07;;;;;;;4.00;3.80;;;14.80;99.90;;;;;;10391253;28;20831;-77
2022/10/01 19:06:30;;;;;;;4.40;4.10;;;14.60;99.90;;;;;;10416254;28;20218;-78
2022/10/01 19:11:44;;;;;;;4.57;3.27;;;14.50;99.90;;;;;;10418916;28;20211;-78
2022/10/01 19:16:51;;;;;;;3.77;3.57;;;14.50;99.90;;;;;;10413532;28;20214;-77
2022/10/01 19:22:00;;;;;;;10.80;9.80;;;14.30;99.90;;;;;;10404267;28;20202;-77
2022/10/01 19:27:12;;;;;;;6.20;5.67;;;14.30;99.90;;;;;;10404623;28;20730;-77
2022/10/01 19:32:19;;;;;;;4.70;4.30;;;14.20;99.90;;;;;;10393258;28;20600;-77
2022/10/01 19:37:31;;;;;;;5.17;4.73;;;14.20;99.90;;;;;;10408278;28;20682;-76
2022/10/01 19:42:38;;;;;;;4.80;4.40;;;14.20;99.90;;;;;;10403742;28;20213;-77
2022/10/01 19:47:46;;;;;;;4.20;4.00;;;14.20;99.90;;;;;;10393873;28;20332;-77
2022/10/01 19:52:51;;;;;;;4.50;3.60;;;14.20;99.90;;;;;;10419838;28;20720;-77
2022/10/01 19:57:53;;;;;;;6.07;4.70;;;14.20;99.90;;;;;;10400402;28;20225;-77
2022/10/01 20:03:02;;;;;;;7.73;4.90;;;14.20;99.90;;;;;;10416201;28;20206;-77
2022/10/01 20:08:15;;;;;;;4.50;3.60;;;14.20;99.90;;;;;;10388735;28;20229;-77
2022/10/01 20:13:30;;;;;;;4.13;3.80;;;14.30;99.90;;;;;;10409002;28;20224;-77
2022/10/01 20:18:41;;;;;;;7.20;5.17;;;14.30;99.90;;;;;;10376616;28;20196;-77
2022/10/01 20:30:39;;;;;;;5.63;3.77;;;14.50;99.90;;;;;;10294536;28;20206;-77
2022/10/01 20:35:54;;;;;;;5.17;4.40;;;14.50;99.90;;;;;;10408954;28;20272;-77
2022/10/01 20:40:58;;;;;;;4.77;4.37;;;14.50;99.90;;;;;;10410818;28;20283;-77
2022/10/01 20:46:09;;;;;;;4.00;3.60;;;14.50;99.90;;;;;;10431397;28;20225;-77
2022/10/01 20:51:17;;;;;;;5.90;3.83;;;14.60;99.90;;;;;;10394234;28;20217;-77
2022/10/01 20:56:22;;;;;;;5.70;2.90;;;14.60;99.90;;;;;;10411973;28;20206;-78
2022/10/01 21:01:29;;;;;;;4.20;3.90;;;14.60;99.90;;;;;;10395310;28;20641;-77
2022/10/01 21:06:34;;;;;;;4.40;3.43;;;14.70;99.90;;;;;;10375807;28;20225;-77
2022/10/01 21:11:41;;;;;;;4.07;3.87;;;14.70;99.90;;;;;;10412195;28;20833;-77
2022/10/01 21:17:11;;;;;;;3.93;3.63;;;14.70;99.90;;;;;;10393791;28;20301;-77
2022/10/01 21:22:25;;;;;;;3.93;3.50;;;14.70;99.90;;;;;;10411418;28;20198;-77
2022/10/01 21:27:44;;;;;;;3.80;3.50;;;14.70;99.90;;;;;;10409715;28;20701;-77
2022/10/01 21:33:08;;;;;;;4.23;3.90;;;14.80;99.90;;;;;;10395017;28;20260;-77
2022/10/01 21:38:16;;;;;;;5.40;4.90;;;14.70;99.90;;;;;;10409517;28;20210;-77
2022/10/01 21:43:30;;;;;;;3.80;3.50;;;14.80;99.90;;;;;;10389599;28;20193;-77
2022/10/01 21:48:42;;;;;;;4.40;3.90;;;14.80;99.90;;;;;;10392869;28;20192;-77
2022/10/01 21:54:06;;;;;;;4.73;4.37;;;14.80;99.90;;;;;;10409602;28;20218;-77
2022/10/01 21:59:20;;;;;;;4.73;4.20;;;14.70;99.90;;;;;;10410773;28;20208;-77
2022/10/01 22:04:32;;;;;;;6.67;4.93;;;14.60;99.90;;;;;;10409946;28;20221;-77
2022/10/01 22:09:41;;;;;;;7.00;5.03;;;14.50;99.90;;;;;;10379918;28;20627;-77
2022/10/01 22:14:45;;;;;;;6.50;5.60;;;14.40;99.90;;;;;;10392131;28;20647;-76
2022/10/01 22:19:52;;;;;;;6.53;5.23;;;14.30;99.90;;;;;;10387903;28;20608;-77
2022/10/01 22:24:57;;;;;;;7.13;5.90;;;14.30;99.90;;;;;;10405238;28;20222;-77
2022/10/01 22:30:06;;;;;;;5.67;5.27;;;14.30;99.90;;;;;;10395231;28;20186;-77
2022/10/01 22:35:16;;;;;;;7.13;6.40;;;14.30;99.90;;;;;;10410977;28;20751;-76
2022/10/01 22:40:24;;;;;;;10.37;5.50;;;14.30;99.90;;;;;;10407377;28;20201;-76
2022/10/01 22:45:35;;;;;;;6.77;5.93;;;14.30;99.90;;;;;;10410786;28;20301;-77
2022/10/01 22:50:50;;;;;;;7.63;5.47;;;14.30;99.90;;;;;;10376921;28;20213;-77
2022/10/01 22:55:54;;;;;;;6.70;4.20;;;14.30;99.90;;;;;;10410437;28;20233;-77
2022/10/01 23:01:13;;;;;;;5.93;5.07;;;14.30;99.90;;;;;;10411030;28;20196;-77
2022/10/01 23:06:23;;;;;;;7.60;6.80;;;14.30;99.90;;;;;;10411911;28;20225;-77
2022/10/01 23:11:30;;;;;;;8.10;6.53;;;14.30;99.90;;;;;;10411084;28;20182;-77
2022/10/01 23:16:38;;;;;;;6.90;4.00;;;14.20;99.90;;;;;;10410111;28;20206;-77
2022/10/01 23:21:49;;;;;;;5.07;4.57;;;14.20;99.90;;;;;;10410230;28;20193;-78
2022/10/01 23:27:02;;;;;;;7.13;4.40;;;14.20;99.90;;;;;;10410034;28;20213;-77
2022/10/01 23:32:16;;;;;;;5.67;5.17;;;14.20;99.90;;;;;;10409887;28;20566;-77
2022/10/01 23:37:47;;;;;;;5.33;4.90;;;14.20;99.90;;;;;;10391474;28;20221;-78
2022/10/01 23:42:56;;;;;;;6.63;4.20;;;14.20;99.90;;;;;;10391774;28;20570;-77
2022/10/01 23:48:03;;;;;;;10.27;4.60;;;14.20;99.90;;;;;;10391617;28;20721;-77
2022/10/01 23:53:14;;;;;;;9.77;4.23;;;14.20;99.90;;;;;;10417395;28;20221;-77
2022/10/01 23:58:21;;;;;;;8.20;4.20;;;14.30;99.90;;;;;;10399561;28;20260;-77
